createdAt,value
2022-09-02T00:00:44.833Z,6.97
2022-09-02T00:03:13.941Z,7.25
2022-09-02T00:05:41.615Z,5.25
2022-09-02T00:08:09.313Z,8.55
2022-09-02T00:10:38.288Z,6.25
2022-09-02T00:13:05.490Z,6.50
2022-09-02T00:15:34.056Z,8.30
2022-09-02T00:18:01.647Z,7.70
2022-09-02T00:20:29.994Z,9.07
2022-09-02T00:22:57.218Z,5.65
2022-09-02T00:25:24.465Z,7.75
2022-09-02T00:27:51.530Z,7.78
2022-09-02T00:30:19.033Z,5.75
2022-09-02T00:32:46.101Z,12.73
2022-09-02T00:35:13.145Z,7.55
2022-09-02T00:37:40.408Z,7.22
2022-09-02T00:40:08.173Z,5.60
2022-09-02T00:42:35.737Z,5.45
2022-09-02T00:45:04.869Z,5.65
2022-09-02T00:47:32.081Z,6.15
2022-09-02T00:49:59.523Z,6.28
2022-09-02T00:52:32.641Z,5.45
2022-09-02T00:54:59.799Z,5.72
2022-09-02T00:57:29.506Z,6.80
2022-09-02T00:59:56.560Z,7.60
2022-09-02T01:02:25.268Z,7.18
2022-09-02T01:04:56.704Z,6.95
2022-09-02T01:07:25.806Z,8.07
2022-09-02T01:09:55.283Z,7.82
2022-09-02T01:12:22.652Z,7.50
2022-09-02T01:14:49.765Z,5.63
2022-09-02T01:17:19.311Z,8.15
2022-09-02T01:19:49.177Z,12.43
2022-09-02T01:22:18.006Z,6.95
2022-09-02T01:24:45.105Z,10.02
2022-09-02T01:27:15.042Z,8.13
2022-09-02T01:29:42.129Z,7.05
2022-09-02T01:32:09.182Z,5.68
2022-09-02T01:34:36.255Z,5.80
2022-09-02T01:37:03.371Z,6.10
2022-09-02T01:39:30.461Z,5.53
2022-09-02T01:41:57.594Z,9.77
2022-09-02T01:44:27.459Z,5.80
2022-09-02T01:46:55.218Z,8.77
2022-09-02T01:49:22.925Z,5.30
2022-09-02T01:51:50.613Z,7.85
2022-09-02T01:54:17.684Z,7.85
2022-09-02T01:56:45.258Z,7.25
2022-09-02T01:59:17.797Z,5.85
2022-09-02T02:01:45.793Z,6.57
2022-09-02T02:04:13.668Z,6.15
2022-09-02T02:06:42.789Z,9.20
2022-09-02T02:09:10.213Z,9.27
2022-09-02T02:11:37.499Z,8.63
2022-09-02T02:14:05.226Z,7.18
2022-09-02T02:16:32.423Z,7.60
2022-09-02T02:18:59.590Z,6.95
2022-09-02T02:21:26.789Z,6.43
2022-09-02T02:23:54.263Z,6.18
2022-09-02T02:26:21.402Z,7.65
2022-09-02T02:28:48.474Z,8.77
2022-09-02T02:31:15.653Z,8.75
2022-09-02T02:33:42.847Z,7.25
2022-09-02T02:36:10.074Z,6.53
2022-09-02T02:38:38.247Z,6.60
2022-09-02T02:41:06.391Z,7.97
2022-09-02T02:43:34.357Z,7.32
2022-09-02T02:46:01.458Z,6.68
2022-09-02T02:48:28.962Z,7.90
2022-09-02T02:50:56.169Z,8.55
2022-09-02T02:53:23.392Z,19.40
2022-09-02T02:55:51.472Z,8.63
2022-09-02T02:58:18.994Z,8.07
2022-09-02T03:00:46.234Z,7.95
2022-09-02T03:03:13.369Z,9.30
2022-09-02T03:05:40.878Z,7.75
2022-09-02T03:08:09.164Z,7.95
2022-09-02T03:10:38.517Z,8.85
2022-09-02T03:13:06.344Z,7.43
2022-09-02T03:15:33.884Z,6.63
2022-09-02T03:18:00.970Z,6.30
2022-09-02T03:20:28.411Z,9.15
2022-09-02T03:22:56.898Z,11.60
2022-09-02T03:25:24.889Z,8.57
2022-09-02T03:27:52.983Z,8.40
2022-09-02T03:30:21.771Z,9.48
2022-09-02T03:32:49.118Z,7.22
2022-09-02T03:35:19.058Z,9.52
2022-09-02T03:37:46.545Z,5.35
2022-09-02T03:40:15.920Z,6.85
2022-09-02T03:42:43.283Z,7.40
2022-09-02T03:45:15.923Z,8.27
2022-09-02T03:47:46.027Z,8.52
2022-09-02T03:50:13.114Z,9.48
2022-09-02T03:52:40.211Z,10.98
2022-09-02T03:55:07.851Z,5.68
2022-09-02T03:57:36.382Z,6.65
2022-09-02T04:00:05.541Z,5.90
2022-09-02T04:02:32.627Z,7.22
2022-09-02T04:04:59.785Z,8.43
2022-09-02T04:07:26.869Z,6.63
2022-09-02T04:09:55.600Z,7.13
2022-09-02T04:12:23.483Z,5.80
2022-09-02T04:14:57.451Z,9.00
2022-09-02T04:17:24.854Z,5.70
2022-09-02T04:19:51.986Z,10.85
2022-09-02T04:22:19.050Z,7.68
2022-09-02T04:24:46.132Z,6.93
2022-09-02T04:27:13.185Z,8.43
2022-09-02T04:29:40.258Z,10.43
2022-09-02T04:32:07.417Z,7.20
2022-09-02T04:34:34.488Z,8.88
2022-09-02T04:37:01.535Z,5.53
2022-09-02T04:39:28.685Z,6.32
2022-09-02T04:41:55.826Z,6.63
2022-09-02T04:44:22.934Z,7.13
2022-09-02T04:46:50.379Z,11.32
2022-09-02T04:49:17.660Z,13.45
2022-09-02T04:51:44.840Z,7.90
2022-09-02T04:54:11.954Z,6.00
2022-09-02T04:56:39.005Z,8.48
2022-09-02T04:59:07.132Z,6.18
2022-09-02T05:01:36.593Z,5.22
2022-09-02T05:04:09.422Z,4.75
2022-09-02T05:06:39.568Z,7.18
2022-09-02T05:09:10.545Z,7.95
2022-09-02T05:11:37.858Z,7.53
2022-09-02T05:14:06.591Z,5.85
2022-09-02T05:16:36.708Z,5.30
2022-09-02T05:19:05.017Z,8.00
2022-09-02T05:21:32.150Z,8.18
2022-09-02T05:24:01.387Z,5.40
2022-09-02T05:26:28.527Z,8.70
2022-09-02T05:28:55.651Z,36.00
2022-09-02T05:31:23.113Z,57.33
2022-09-02T05:33:50.251Z,72.13
2022-09-02T05:36:20.373Z,61.28
2022-09-02T05:38:47.746Z,43.67
2022-09-02T05:41:16.493Z,29.15
2022-09-02T05:43:44.608Z,24.23
2022-09-02T05:46:13.196Z,22.10
2022-09-02T05:48:59.359Z,14.50
2022-09-02T05:51:26.459Z,15.45
2022-09-02T05:53:58.116Z,16.10
2022-09-02T05:56:25.558Z,13.77
2022-09-02T05:58:53.386Z,12.32
2022-09-02T06:01:20.558Z,8.45
2022-09-02T06:03:48.493Z,10.00
2022-09-02T06:06:15.856Z,7.75
2022-09-02T06:08:43.446Z,11.15
2022-09-02T06:11:11.480Z,7.78
2022-09-02T06:13:40.802Z,6.43
2022-09-02T06:16:10.485Z,7.20
2022-09-02T06:18:37.635Z,6.07
2022-09-02T06:21:06.062Z,8.85
2022-09-02T06:23:34.773Z,9.82
2022-09-02T06:26:01.876Z,6.32
2022-09-02T06:28:28.997Z,8.07
2022-09-02T06:30:56.239Z,6.80
2022-09-02T06:33:23.433Z,10.05
2022-09-02T06:35:50.773Z,6.55
2022-09-02T06:38:19.725Z,4.47
2022-09-02T06:40:47.967Z,8.57
2022-09-02T06:43:15.297Z,9.10
2022-09-02T06:45:45.756Z,6.68
2022-09-02T06:48:13.749Z,9.73
2022-09-02T06:50:45.380Z,8.15
2022-09-02T06:53:13.233Z,4.88
2022-09-02T06:55:41.520Z,5.80
2022-09-02T06:58:08.712Z,6.93
2022-09-02T07:00:36.927Z,4.60
2022-09-02T07:03:23.507Z,8.38
2022-09-02T07:06:02.822Z,9.05
2022-09-02T07:08:30.139Z,8.68
2022-09-02T07:10:57.260Z,6.97
2022-09-02T07:13:24.366Z,5.75
2022-09-02T07:15:51.508Z,6.78
2022-09-02T07:18:18.586Z,10.05
2022-09-02T07:20:46.943Z,8.35
2022-09-02T07:23:14.838Z,6.03
2022-09-02T07:25:42.192Z,6.88
2022-09-02T07:28:09.970Z,6.38
2022-09-02T07:30:37.155Z,9.05
2022-09-02T07:33:05.488Z,6.95
2022-09-02T07:35:33.501Z,6.03
2022-09-02T07:38:00.560Z,6.38
2022-09-02T07:40:27.709Z,8.88
2022-09-02T07:42:55.051Z,5.55
2022-09-02T07:45:22.170Z,4.25
2022-09-02T07:47:49.432Z,4.72
2022-09-02T07:50:19.523Z,5.15
2022-09-02T07:52:48.960Z,7.10
2022-09-02T07:55:16.020Z,5.72
2022-09-02T07:57:43.217Z,4.85
2022-09-02T08:00:12.142Z,8.15
2022-09-02T08:02:39.281Z,7.30
2022-09-02T08:05:06.799Z,6.68
2022-09-02T08:07:33.901Z,4.97
2022-09-02T08:10:01.206Z,4.95
2022-09-02T08:12:28.816Z,6.22
2022-09-02T08:14:58.640Z,5.20
2022-09-02T08:17:25.949Z,5.22
2022-09-02T08:19:53.029Z,6.90
2022-09-02T08:22:20.162Z,6.50
2022-09-02T08:24:49.633Z,5.05
2022-09-02T08:27:16.726Z,6.90
2022-09-02T08:29:43.872Z,10.07
2022-09-02T08:32:11.124Z,7.90
2022-09-02T08:34:38.228Z,6.03
2022-09-02T08:37:06.425Z,6.10
2022-09-02T08:39:33.607Z,5.68
2022-09-02T08:42:33.361Z,4.72
2022-09-02T08:45:12.806Z,6.10
2022-09-02T08:47:40.832Z,4.63
2022-09-02T08:50:14.647Z,7.53
2022-09-02T08:52:41.711Z,5.78
2022-09-02T08:55:12.356Z,6.20
2022-09-02T08:57:46.488Z,5.63
2022-09-02T09:00:14.177Z,4.70
2022-09-02T09:02:59.997Z,4.13
2022-09-02T09:05:30.186Z,4.68
2022-09-02T09:07:57.210Z,5.30
2022-09-02T09:10:38.867Z,5.57
2022-09-02T09:13:09.193Z,4.47
2022-09-02T09:15:42.735Z,4.65
2022-09-02T09:18:11.346Z,7.22
2022-09-02T09:20:39.920Z,5.35
2022-09-02T09:23:13.350Z,4.45
2022-09-02T09:25:40.582Z,8.30
2022-09-02T09:28:07.993Z,6.15
2022-09-02T09:30:36.453Z,6.43
2022-09-02T09:33:04.215Z,5.13
2022-09-02T09:35:49.313Z,6.15
2022-09-02T09:38:17.848Z,5.18
2022-09-02T09:40:44.981Z,4.43
2022-09-02T09:43:15.210Z,6.00
2022-09-02T09:45:51.462Z,9.27
2022-09-02T09:48:19.158Z,6.22
2022-09-02T09:50:47.272Z,4.53
2022-09-02T09:53:27.669Z,4.40
2022-09-02T09:55:56.156Z,6.75
2022-09-02T09:58:24.163Z,5.95
2022-09-02T10:00:57.023Z,5.55
2022-09-02T10:03:26.941Z,7.70
2022-09-02T10:06:17.820Z,7.05
2022-09-02T10:09:14.429Z,6.63
2022-09-02T10:11:54.782Z,4.95
2022-09-02T10:14:23.713Z,9.35
2022-09-02T10:17:03.605Z,5.90
2022-09-02T10:19:35.209Z,6.65
2022-09-02T10:22:22.525Z,7.85
2022-09-02T10:25:07.649Z,5.60
2022-09-02T10:27:46.347Z,3.92
2022-09-02T10:30:20.596Z,5.85
2022-09-02T10:33:14.021Z,6.20
2022-09-02T10:35:45.860Z,5.40
2022-09-02T10:38:18.919Z,8.02
2022-09-02T10:40:50.589Z,5.45
2022-09-02T10:43:32.321Z,5.35
2022-09-02T10:46:00.812Z,5.57
2022-09-02T10:48:34.424Z,7.65
2022-09-02T10:51:14.513Z,13.82
2022-09-02T10:53:44.648Z,4.82
2022-09-02T10:56:11.776Z,6.45
2022-09-02T10:58:43.637Z,6.00
2022-09-02T11:01:15.438Z,4.47
2022-09-02T11:04:02.914Z,4.82
2022-09-02T11:06:51.893Z,4.47
2022-09-02T11:11:59.619Z,6.50
2022-09-02T11:14:45.894Z,5.32
2022-09-02T11:17:26.090Z,3.70
2022-09-02T11:19:58.804Z,4.95
2022-09-02T11:22:31.236Z,7.10
2022-09-02T11:25:03.873Z,6.22
2022-09-02T11:27:52.402Z,5.43
2022-09-02T11:30:21.430Z,5.65
2022-09-02T11:33:11.466Z,3.92
2022-09-02T11:35:39.618Z,4.32
2022-09-02T11:38:12.641Z,5.38
2022-09-02T11:40:45.332Z,4.05
2022-09-02T11:43:27.831Z,10.93
2022-09-02T11:46:07.511Z,9.60
2022-09-02T11:48:50.788Z,6.53
2022-09-02T11:51:44.146Z,4.40
2022-09-02T11:54:14.635Z,4.35
2022-09-02T11:56:45.444Z,4.82
2022-09-02T11:59:23.551Z,3.42
2022-09-02T12:01:52.730Z,7.90
2022-09-02T12:07:10.283Z,5.13
2022-09-02T12:12:31.740Z,6.95
2022-09-02T12:14:58.797Z,4.15
2022-09-02T12:17:46.211Z,5.03
2022-09-02T12:20:33.533Z,3.92
2022-09-02T12:23:00.617Z,5.47
2022-09-02T12:25:34.090Z,5.03
2022-09-02T12:28:19.151Z,4.22
2022-09-02T12:31:08.712Z,3.85
2022-09-02T12:33:35.941Z,8.60
2022-09-02T12:36:04.740Z,4.38
2022-09-02T12:38:36.337Z,4.82
2022-09-02T12:41:08.649Z,5.38
2022-09-02T12:43:47.134Z,4.47
2022-09-02T12:46:25.315Z,5.05
2022-09-02T12:49:14.417Z,6.70
2022-09-02T12:52:02.213Z,3.35
2022-09-02T12:54:35.378Z,4.72
2022-09-02T12:57:03.741Z,4.95
2022-09-02T12:59:32.459Z,5.93
2022-09-02T13:02:17.998Z,5.78
2022-09-02T13:04:45.052Z,3.47
2022-09-02T13:07:21.289Z,4.78
2022-09-02T13:09:51.175Z,5.07
2022-09-02T13:12:38.705Z,11.23
2022-09-02T13:15:22.611Z,5.20
2022-09-02T13:17:50.252Z,5.38
2022-09-02T13:20:27.071Z,7.13
2022-09-02T13:23:12.712Z,5.95
2022-09-02T13:25:43.425Z,9.23
2022-09-02T13:28:13.310Z,6.05
2022-09-02T13:30:55.510Z,8.52
2022-09-02T13:33:22.746Z,7.63
2022-09-02T13:35:54.563Z,5.10
2022-09-02T13:38:24.332Z,4.57
2022-09-02T13:40:51.658Z,4.82
2022-09-02T13:43:20.004Z,3.05
2022-09-02T13:45:48.389Z,5.35
2022-09-02T13:48:29.395Z,3.97
2022-09-02T13:51:00.127Z,6.55
2022-09-02T13:53:53.924Z,6.22
2022-09-02T13:56:15.103Z,4.85
2022-09-02T13:58:45.914Z,9.25
2022-09-02T14:01:25.392Z,4.45
2022-09-02T14:03:54.023Z,7.97
2022-09-02T14:06:23.445Z,5.47
2022-09-02T14:08:56.285Z,8.23
2022-09-02T14:11:23.713Z,5.97
2022-09-02T14:13:51.632Z,3.65
2022-09-02T14:16:26.348Z,3.00
2022-09-02T14:19:05.733Z,6.13
2022-09-02T14:21:33.251Z,4.72
2022-09-02T14:24:00.452Z,4.35
2022-09-02T14:26:42.723Z,5.10
2022-09-02T14:29:12.943Z,5.07
2022-09-02T14:31:40.119Z,4.30
2022-09-02T14:34:27.126Z,5.05
2022-09-02T14:36:54.201Z,5.43
2022-09-02T14:39:21.430Z,5.28
2022-09-02T14:41:49.526Z,3.47
2022-09-02T14:44:16.562Z,6.40
2022-09-02T14:46:55.109Z,4.15
2022-09-02T14:49:23.687Z,5.60
2022-09-02T14:51:57.450Z,4.72
2022-09-02T14:54:41.210Z,9.00
2022-09-02T14:57:23.673Z,4.28
2022-09-02T14:59:51.120Z,3.67
2022-09-02T15:02:25.376Z,6.95
2022-09-02T15:04:52.679Z,5.38
2022-09-02T15:07:19.889Z,1.98
2022-09-02T15:09:48.894Z,7.72
2022-09-02T15:12:20.221Z,6.45
2022-09-02T15:14:47.661Z,6.82
2022-09-02T15:17:17.414Z,4.05
2022-09-02T15:19:44.541Z,3.88
2022-09-02T15:22:11.760Z,3.35
2022-09-02T15:24:38.844Z,3.65
2022-09-02T15:27:06.014Z,6.00
2022-09-02T15:29:33.131Z,3.95
2022-09-02T15:32:00.520Z,4.38
2022-09-02T15:34:27.712Z,5.65
2022-09-02T15:36:55.505Z,5.68
2022-09-02T15:39:22.972Z,6.13
2022-09-02T15:41:50.092Z,4.72
2022-09-02T15:44:17.978Z,5.72
2022-09-02T15:46:45.650Z,4.00
2022-09-02T15:49:13.823Z,5.47
2022-09-02T15:51:44.662Z,4.07
2022-09-02T15:54:16.394Z,5.10
2022-09-02T15:56:44.594Z,3.97
2022-09-02T15:59:14.596Z,6.70
2022-09-02T16:01:43.696Z,3.75
2022-09-02T16:04:11.864Z,4.07
2022-09-02T16:06:40.221Z,3.35
2022-09-02T16:09:08.124Z,6.45
2022-09-02T16:11:38.040Z,3.03
2022-09-02T16:14:05.545Z,7.28
2022-09-02T16:16:32.842Z,2.45
2022-09-02T16:19:00.075Z,6.90
2022-09-02T16:21:27.280Z,4.85
2022-09-02T16:23:54.424Z,3.47
2022-09-02T16:26:28.475Z,3.10
2022-09-02T16:28:57.122Z,3.83
2022-09-02T16:31:25.763Z,5.25
2022-09-02T16:33:57.164Z,7.38
2022-09-02T16:36:25.331Z,3.70
2022-09-02T16:38:56.321Z,4.13
2022-09-02T16:41:32.274Z,3.05
2022-09-02T16:44:00.181Z,4.45
2022-09-02T16:46:27.704Z,4.65
2022-09-02T16:48:58.224Z,4.32
2022-09-02T16:51:25.790Z,4.40
2022-09-02T16:53:56.493Z,5.10
2022-09-02T16:56:24.518Z,5.07
2022-09-02T16:58:52.560Z,4.20
2022-09-02T17:01:20.354Z,5.28
2022-09-02T17:03:48.593Z,5.00
2022-09-02T17:06:15.937Z,5.70
2022-09-02T17:08:43.369Z,4.95
2022-09-02T17:11:11.478Z,4.28
2022-09-02T17:13:40.133Z,6.53
2022-09-02T17:16:07.845Z,4.40
2022-09-02T17:18:37.761Z,4.70
2022-09-02T17:21:23.405Z,3.92
2022-09-02T17:23:50.623Z,4.82
2022-09-02T17:26:18.233Z,3.92
2022-09-02T17:28:49.002Z,7.38
2022-09-02T17:31:20.677Z,4.85
2022-09-02T17:33:48.474Z,6.20
2022-09-02T17:36:15.577Z,5.55
2022-09-02T17:38:43.827Z,4.07
2022-09-02T17:41:29.711Z,4.40
2022-09-02T17:43:56.816Z,4.30
2022-09-02T17:46:23.939Z,5.25
2022-09-02T17:49:15.264Z,4.00
2022-09-02T17:51:39.645Z,6.05
2022-09-02T17:54:07.922Z,3.78
2022-09-02T17:56:42.813Z,5.57
2022-09-02T17:59:28.293Z,4.00
2022-09-02T18:02:12.113Z,6.05
2022-09-02T18:04:48.949Z,3.70
2022-09-02T18:07:31.202Z,6.18
2022-09-02T18:09:58.396Z,5.00
2022-09-02T18:12:26.656Z,5.60
2022-09-02T18:14:58.766Z,3.15
2022-09-02T18:17:37.644Z,4.80
2022-09-02T18:20:09.359Z,6.05
2022-09-02T18:22:48.936Z,4.43
2022-09-02T18:25:29.274Z,4.72
2022-09-02T18:28:06.367Z,2.63
2022-09-02T18:30:52.601Z,5.30
2022-09-02T18:33:25.860Z,5.63
2022-09-02T18:35:52.898Z,6.28
2022-09-02T18:38:27.925Z,4.75
2022-09-02T18:40:59.651Z,4.68
2022-09-02T18:43:41.969Z,4.25
2022-09-02T18:46:12.012Z,3.65
2022-09-02T18:48:39.936Z,5.35
2022-09-02T18:51:15.339Z,4.53
2022-09-02T18:53:54.970Z,3.95
2022-09-02T18:56:24.926Z,5.18
2022-09-02T18:59:02.150Z,4.10
2022-09-02T19:01:30.620Z,4.25
2022-09-02T19:04:01.021Z,4.88
2022-09-02T19:06:34.114Z,5.22
2022-09-02T19:09:06.091Z,4.45
2022-09-02T19:11:34.079Z,4.28
2022-09-02T19:14:06.949Z,4.93
2022-09-02T19:16:34.716Z,5.90
2022-09-02T19:19:01.809Z,4.22
2022-09-02T19:21:31.902Z,7.28
2022-09-02T19:23:59.066Z,3.88
2022-09-02T19:26:26.150Z,4.07
2022-09-02T19:28:55.397Z,5.82
2022-09-02T19:31:23.556Z,6.00
2022-09-02T19:33:52.671Z,3.92
2022-09-02T19:36:20.842Z,4.40
2022-09-02T19:38:47.890Z,5.75
2022-09-02T19:41:15.228Z,6.80
2022-09-02T19:43:42.442Z,6.97
2022-09-02T19:46:21.949Z,6.88
2022-09-02T19:48:58.157Z,6.03
2022-09-02T19:51:27.321Z,6.97
2022-09-02T19:53:56.421Z,5.05
2022-09-02T19:56:23.493Z,4.47
2022-09-02T19:58:50.558Z,4.93
2022-09-02T20:01:17.650Z,6.20
2022-09-02T20:03:46.430Z,6.03
2022-09-02T20:06:13.512Z,9.80
2022-09-02T20:08:40.555Z,8.35
2022-09-02T20:11:07.934Z,7.50
2022-09-02T20:13:40.751Z,6.05
2022-09-02T20:16:16.486Z,6.03
2022-09-02T20:18:48.191Z,6.07
2022-09-02T20:21:27.431Z,6.45
2022-09-02T20:24:10.312Z,6.55
2022-09-02T20:26:56.442Z,8.18
2022-09-02T20:29:26.719Z,11.15
2022-09-02T20:32:00.581Z,5.45
2022-09-02T20:34:30.602Z,5.88
2022-09-02T20:37:12.563Z,8.15
2022-09-02T20:39:57.691Z,6.20
2022-09-02T20:42:37.302Z,7.07
2022-09-02T20:45:13.364Z,6.82
2022-09-02T20:47:46.378Z,11.35
2022-09-02T20:50:31.999Z,7.90
2022-09-02T20:53:06.131Z,7.60
2022-09-02T20:55:36.400Z,5.70
2022-09-02T20:58:18.673Z,6.38
2022-09-02T21:01:01.322Z,7.28
2022-09-02T21:03:37.184Z,6.07
2022-09-02T21:06:04.636Z,6.70
2022-09-02T21:08:56.907Z,7.50
2022-09-02T21:11:29.286Z,9.60
2022-09-02T21:14:16.980Z,9.20
2022-09-02T21:16:47.058Z,6.82
2022-09-02T21:19:18.148Z,8.90
2022-09-02T21:21:54.200Z,7.25
2022-09-02T21:24:24.472Z,10.40
2022-09-02T21:26:56.607Z,6.47
2022-09-02T21:29:34.726Z,6.05
2022-09-02T21:32:25.186Z,7.30
2022-09-02T21:35:04.293Z,6.85
2022-09-02T21:37:32.738Z,7.32
2022-09-02T21:40:06.573Z,9.15
2022-09-02T21:42:36.429Z,7.13
2022-09-02T21:45:03.498Z,7.22
2022-09-02T21:47:40.929Z,6.68
2022-09-02T21:50:11.122Z,8.23
2022-09-02T21:52:44.184Z,9.77
2022-09-02T21:55:24.614Z,8.02
2022-09-02T21:58:07.531Z,5.93
2022-09-02T22:00:35.171Z,8.30
2022-09-02T22:03:20.995Z,12.30
2022-09-02T22:05:53.849Z,11.98
2022-09-02T22:08:26.650Z,9.70
2022-09-02T22:10:54.197Z,9.98
2022-09-02T22:13:22.652Z,10.73
2022-09-02T22:15:59.366Z,6.65
2022-09-02T22:18:30.953Z,6.72
2022-09-02T22:21:01.233Z,8.10
2022-09-02T22:23:30.056Z,6.00
2022-09-02T22:26:05.597Z,7.88
2022-09-02T22:28:36.363Z,8.63
2022-09-02T22:31:08.404Z,10.88
2022-09-02T22:33:38.106Z,7.57
2022-09-02T22:36:11.930Z,6.07
2022-09-02T22:38:47.852Z,7.20
2022-09-02T22:41:24.552Z,9.15
2022-09-02T22:43:56.023Z,6.80
2022-09-02T22:46:45.403Z,5.95
2022-09-02T22:49:30.776Z,8.40
2022-09-02T22:52:24.978Z,8.48
2022-09-02T22:54:52.884Z,8.75
2022-09-02T22:57:22.689Z,7.15
2022-09-02T23:00:07.753Z,7.18
2022-09-02T23:02:46.854Z,10.30
2022-09-02T23:05:49.283Z,9.85
2022-09-02T23:08:20.332Z,8.02
2022-09-02T23:11:06.645Z,9.73
2022-09-02T23:13:43.034Z,7.38
2022-09-02T23:16:14.033Z,7.22
2022-09-02T23:18:53.435Z,6.93
2022-09-02T23:21:37.146Z,8.82
2022-09-02T23:24:09.228Z,7.03
2022-09-02T23:26:45.058Z,9.35
2022-09-02T23:29:15.668Z,7.97
2022-09-02T23:31:42.769Z,6.32
2022-09-02T23:34:20.749Z,6.78
2022-09-02T23:36:57.730Z,7.38
2022-09-02T23:39:33.742Z,9.32
2022-09-02T23:42:00.859Z,8.00
2022-09-02T23:44:29.034Z,7.72
2022-09-02T23:47:14.792Z,9.70
2022-09-02T23:49:52.242Z,6.75
2022-09-02T23:52:23.416Z,5.50
2022-09-02T23:54:56.301Z,5.28
2022-09-02T23:57:42.481Z,6.57
